sensor_id;sensor_type;location;lat;lon;timestamp;temperature;humidity
16154;DHT22;8182;55.648;13.208;2023-09-18T00:01:18;16.70;99.90
16154;DHT22;8182;55.648;13.208;2023-09-18T00:03:49;16.70;99.90
16154;DHT22;8182;55.648;13.208;2023-09-18T00:06:16;16.80;99.90
16154;DHT22;8182;55.648;13.208;2023-09-18T00:08:43;16.80;99.90
16154;DHT22;8182;55.648;13.208;2023-09-18T00:11:10;16.80;99.90
16154;DHT22;8182;55.648;13.208;2023-09-18T00:13:39;16.80;99.90
16154;DHT22;8182;55.648;13.208;2023-09-18T00:16:06;16.80;99.90
16154;DHT22;8182;55.648;13.208;2023-09-18T00:18:35;16.80;99.90
16154;DHT22;8182;55.648;13.208;2023-09-18T00:21:02;16.90;99.90
16154;DHT22;8182;55.648;13.208;2023-09-18T00:23:30;16.90;99.90
16154;DHT22;8182;55.648;13.208;2023-09-18T00:25:57;16.90;99.90
16154;DHT22;8182;55.648;13.208;2023-09-18T00:28:24;16.90;99.90
16154;DHT22;8182;55.648;13.208;2023-09-18T00:30:52;17.00;99.90
16154;DHT22;8182;55.648;13.208;2023-09-18T00:33:20;17.00;99.90
16154;DHT22;8182;55.648;13.208;2023-09-18T00:35:47;17.00;99.90
16154;DHT22;8182;55.648;13.208;2023-09-18T00:38:14;17.00;99.90
16154;DHT22;8182;55.648;13.208;2023-09-18T00:40:41;17.00;99.90
16154;DHT22;8182;55.648;13.208;2023-09-18T00:43:08;17.00;99.90
16154;DHT22;8182;55.648;13.208;2023-09-18T00:45:42;17.10;99.90
16154;DHT22;8182;55.648;13.208;2023-09-18T00:48:11;17.10;99.90
16154;DHT22;8182;55.648;13.208;2023-09-18T00:50:45;17.10;99.90
16154;DHT22;8182;55.648;13.208;2023-09-18T00:53:17;17.10;99.90
16154;DHT22;8182;55.648;13.208;2023-09-18T00:55:44;17.10;99.90
16154;DHT22;8182;55.648;13.208;2023-09-18T00:58:15;17.10;99.90
16154;DHT22;8182;55.648;13.208;2023-09-18T01:00:46;17.10;99.90
16154;DHT22;8182;55.648;13.208;2023-09-18T01:03:18;17.10;99.90
16154;DHT22;8182;55.648;13.208;2023-09-18T01:05:47;17.10;99.90
16154;DHT22;8182;55.648;13.208;2023-09-18T01:08:14;17.00;99.90
16154;DHT22;8182;55.648;13.208;2023-09-18T01:10:48;17.00;99.90
16154;DHT22;8182;55.648;13.208;2023-09-18T01:13:25;17.00;99.90
16154;DHT22;8182;55.648;13.208;2023-09-18T01:15:57;17.00;99.90
16154;DHT22;8182;55.648;13.208;2023-09-18T01:18:28;17.00;99.90
16154;DHT22;8182;55.648;13.208;2023-09-18T01:20:55;17.00;99.90
16154;DHT22;8182;55.648;13.208;2023-09-18T01:23:23;17.00;99.90
16154;DHT22;8182;55.648;13.208;2023-09-18T01:25:50;17.00;99.90
16154;DHT22;8182;55.648;13.208;2023-09-18T01:28:17;17.10;99.90
16154;DHT22;8182;55.648;13.208;2023-09-18T01:30:45;17.00;99.90
16154;DHT22;8182;55.648;13.208;2023-09-18T01:33:13;17.00;99.90
16154;DHT22;8182;55.648;13.208;2023-09-18T01:35:42;17.00;99.90
16154;DHT22;8182;55.648;13.208;2023-09-18T01:38:11;17.10;99.90
16154;DHT22;8182;55.648;13.208;2023-09-18T01:40:40;17.10;99.90
16154;DHT22;8182;55.648;13.208;2023-09-18T01:43:08;17.10;99.90
16154;DHT22;8182;55.648;13.208;2023-09-18T01:45:36;17.10;99.90
16154;DHT22;8182;55.648;13.208;2023-09-18T01:48:06;17.10;99.90
16154;DHT22;8182;55.648;13.208;2023-09-18T01:50:33;17.20;99.90
16154;DHT22;8182;55.648;13.208;2023-09-18T01:53:01;17.20;99.90
16154;DHT22;8182;55.648;13.208;2023-09-18T01:55:29;17.20;99.90
16154;DHT22;8182;55.648;13.208;2023-09-18T01:57:57;17.30;99.90
16154;DHT22;8182;55.648;13.208;2023-09-18T02:00:24;17.30;99.90
16154;DHT22;8182;55.648;13.208;2023-09-18T02:02:51;17.30;99.90
16154;DHT22;8182;55.648;13.208;2023-09-18T02:05:18;17.30;99.90
16154;DHT22;8182;55.648;13.208;2023-09-18T02:07:51;17.20;99.90
16154;DHT22;8182;55.648;13.208;2023-09-18T02:10:18;17.20;99.90
16154;DHT22;8182;55.648;13.208;2023-09-18T02:12:45;17.30;99.90
16154;DHT22;8182;55.648;13.208;2023-09-18T02:15:15;17.20;99.90
16154;DHT22;8182;55.648;13.208;2023-09-18T02:17:42;17.20;99.90
16154;DHT22;8182;55.648;13.208;2023-09-18T02:20:13;17.30;99.90
16154;DHT22;8182;55.648;13.208;2023-09-18T02:22:40;17.30;99.90
16154;DHT22;8182;55.648;13.208;2023-09-18T02:25:12;17.30;99.90
16154;DHT22;8182;55.648;13.208;2023-09-18T02:27:39;17.40;99.90
16154;DHT22;8182;55.648;13.208;2023-09-18T02:30:07;17.40;99.90
16154;DHT22;8182;55.648;13.208;2023-09-18T02:32:36;17.40;99.90
16154;DHT22;8182;55.648;13.208;2023-09-18T02:35:04;17.40;99.90
16154;DHT22;8182;55.648;13.208;2023-09-18T02:37:32;17.40;99.90
16154;DHT22;8182;55.648;13.208;2023-09-18T02:39:59;17.40;99.90
16154;DHT22;8182;55.648;13.208;2023-09-18T02:42:28;17.40;99.90
16154;DHT22;8182;55.648;13.208;2023-09-18T02:44:55;17.40;99.90
16154;DHT22;8182;55.648;13.208;2023-09-18T02:47:21;17.50;99.90
16154;DHT22;8182;55.648;13.208;2023-09-18T02:49:50;17.50;99.90
16154;DHT22;8182;55.648;13.208;2023-09-18T02:52:17;17.50;99.90
16154;DHT22;8182;55.648;13.208;2023-09-18T02:54:43;17.50;99.90
16154;DHT22;8182;55.648;13.208;2023-09-18T02:57:10;17.50;99.90
16154;DHT22;8182;55.648;13.208;2023-09-18T02:59:41;17.40;99.90
16154;DHT22;8182;55.648;13.208;2023-09-18T03:02:09;17.40;99.90
16154;DHT22;8182;55.648;13.208;2023-09-18T03:04:36;17.40;99.90
16154;DHT22;8182;55.648;13.208;2023-09-18T03:07:04;17.40;99.90
16154;DHT22;8182;55.648;13.208;2023-09-18T03:09:31;17.40;99.90
16154;DHT22;8182;55.648;13.208;2023-09-18T03:12:01;17.30;99.90
16154;DHT22;8182;55.648;13.208;2023-09-18T03:14:36;17.30;99.90
16154;DHT22;8182;55.648;13.208;2023-09-18T03:17:04;17.30;99.90
16154;DHT22;8182;55.648;13.208;2023-09-18T03:19:31;17.40;99.90
16154;DHT22;8182;55.648;13.208;2023-09-18T03:21:58;17.40;99.90
16154;DHT22;8182;55.648;13.208;2023-09-18T03:24:26;17.40;99.90
16154;DHT22;8182;55.648;13.208;2023-09-18T03:26:53;17.40;99.90
16154;DHT22;8182;55.648;13.208;2023-09-18T03:29:20;17.40;99.90
16154;DHT22;8182;55.648;13.208;2023-09-18T03:31:50;17.40;99.90
16154;DHT22;8182;55.648;13.208;2023-09-18T03:34:17;17.40;99.90
16154;DHT22;8182;55.648;13.208;2023-09-18T03:36:44;17.40;99.90
16154;DHT22;8182;55.648;13.208;2023-09-18T03:39:11;17.50;99.90
16154;DHT22;8182;55.648;13.208;2023-09-18T03:41:39;17.40;99.90
16154;DHT22;8182;55.648;13.208;2023-09-18T03:44:06;17.40;99.90
16154;DHT22;8182;55.648;13.208;2023-09-18T03:46:33;17.40;99.90
16154;DHT22;8182;55.648;13.208;2023-09-18T03:49:00;17.50;99.90
16154;DHT22;8182;55.648;13.208;2023-09-18T03:51:27;17.50;99.90
16154;DHT22;8182;55.648;13.208;2023-09-18T03:53:56;17.50;99.90
16154;DHT22;8182;55.648;13.208;2023-09-18T03:56:23;17.50;99.90
16154;DHT22;8182;55.648;13.208;2023-09-18T03:58:51;17.50;99.90
16154;DHT22;8182;55.648;13.208;2023-09-18T04:01:18;17.60;99.90
16154;DHT22;8182;55.648;13.208;2023-09-18T04:03:48;17.50;99.90
16154;DHT22;8182;55.648;13.208;2023-09-18T04:06:15;17.50;99.90
16154;DHT22;8182;55.648;13.208;2023-09-18T04:08:44;17.50;99.90
16154;DHT22;8182;55.648;13.208;2023-09-18T04:11:12;17.60;99.90
16154;DHT22;8182;55.648;13.208;2023-09-18T04:13:39;17.50;99.90
16154;DHT22;8182;55.648;13.208;2023-09-18T04:16:07;17.50;99.90
16154;DHT22;8182;55.648;13.208;2023-09-18T04:18:34;17.60;99.90
16154;DHT22;8182;55.648;13.208;2023-09-18T04:21:01;17.60;99.90
16154;DHT22;8182;55.648;13.208;2023-09-18T04:23:29;17.50;99.90
16154;DHT22;8182;55.648;13.208;2023-09-18T04:25:56;17.60;99.90
16154;DHT22;8182;55.648;13.208;2023-09-18T04:28:26;17.60;99.90
16154;DHT22;8182;55.648;13.208;2023-09-18T04:30:57;17.60;99.90
16154;DHT22;8182;55.648;13.208;2023-09-18T04:33:28;17.60;99.90
16154;DHT22;8182;55.648;13.208;2023-09-18T04:35:55;17.60;99.90
16154;DHT22;8182;55.648;13.208;2023-09-18T04:38:22;17.60;99.90
16154;DHT22;8182;55.648;13.208;2023-09-18T04:40:48;17.60;99.90
16154;DHT22;8182;55.648;13.208;2023-09-18T04:43:18;17.60;99.90
16154;DHT22;8182;55.648;13.208;2023-09-18T04:45:45;17.50;99.90
16154;DHT22;8182;55.648;13.208;2023-09-18T04:48:12;17.50;99.90
16154;DHT22;8182;55.648;13.208;2023-09-18T04:50:40;17.60;99.90
16154;DHT22;8182;55.648;13.208;2023-09-18T04:53:08;17.60;99.90
16154;DHT22;8182;55.648;13.208;2023-09-18T04:55:35;17.60;99.90
16154;DHT22;8182;55.648;13.208;2023-09-18T04:58:03;17.60;99.90
16154;DHT22;8182;55.648;13.208;2023-09-18T05:00:30;17.60;99.90
16154;DHT22;8182;55.648;13.208;2023-09-18T05:02:58;17.60;99.90
16154;DHT22;8182;55.648;13.208;2023-09-18T05:05:30;17.60;99.90
16154;DHT22;8182;55.648;13.208;2023-09-18T05:07:58;17.60;99.90
16154;DHT22;8182;55.648;13.208;2023-09-18T05:10:25;17.70;99.90
16154;DHT22;8182;55.648;13.208;2023-09-18T05:12:52;17.60;99.90
16154;DHT22;8182;55.648;13.208;2023-09-18T05:15:24;17.70;99.90
16154;DHT22;8182;55.648;13.208;2023-09-18T05:17:55;17.60;99.90
16154;DHT22;8182;55.648;13.208;2023-09-18T05:20:24;17.70;99.90
16154;DHT22;8182;55.648;13.208;2023-09-18T05:22:54;17.70;99.90
16154;DHT22;8182;55.648;13.208;2023-09-18T05:25:24;17.70;99.90
16154;DHT22;8182;55.648;13.208;2023-09-18T05:27:52;17.70;99.90
16154;DHT22;8182;55.648;13.208;2023-09-18T05:30:27;17.70;99.90
16154;DHT22;8182;55.648;13.208;2023-09-18T05:32:55;17.80;99.90
16154;DHT22;8182;55.648;13.208;2023-09-18T05:35:22;17.80;99.90
16154;DHT22;8182;55.648;13.208;2023-09-18T05:37:49;17.80;99.90
16154;DHT22;8182;55.648;13.208;2023-09-18T05:40:17;17.80;99.90
16154;DHT22;8182;55.648;13.208;2023-09-18T05:42:46;17.80;99.90
16154;DHT22;8182;55.648;13.208;2023-09-18T05:45:13;17.80;99.90
16154;DHT22;8182;55.648;13.208;2023-09-18T05:47:41;17.80;99.90
16154;DHT22;8182;55.648;13.208;2023-09-18T05:50:10;17.80;99.90
16154;DHT22;8182;55.648;13.208;2023-09-18T05:52:40;17.80;99.90
16154;DHT22;8182;55.648;13.208;2023-09-18T05:55:08;17.90;99.90
16154;DHT22;8182;55.648;13.208;2023-09-18T05:57:35;17.90;99.90
16154;DHT22;8182;55.648;13.208;2023-09-18T06:00:05;17.90;99.90
16154;DHT22;8182;55.648;13.208;2023-09-18T06:02:33;17.90;99.90
16154;DHT22;8182;55.648;13.208;2023-09-18T06:05:00;17.90;99.90
16154;DHT22;8182;55.648;13.208;2023-09-18T06:07:28;18.00;99.90
16154;DHT22;8182;55.648;13.208;2023-09-18T06:09:56;18.00;99.90
16154;DHT22;8182;55.648;13.208;2023-09-18T06:12:23;18.00;99.90
16154;DHT22;8182;55.648;13.208;2023-09-18T06:14:50;18.00;99.90
16154;DHT22;8182;55.648;13.208;2023-09-18T06:17:18;18.00;99.90
16154;DHT22;8182;55.648;13.208;2023-09-18T06:19:45;18.10;99.90
16154;DHT22;8182;55.648;13.208;2023-09-18T06:22:17;18.10;99.90
16154;DHT22;8182;55.648;13.208;2023-09-18T06:24:47;18.20;99.90
16154;DHT22;8182;55.648;13.208;2023-09-18T06:27:14;18.20;99.90
16154;DHT22;8182;55.648;13.208;2023-09-18T06:29:41;18.30;99.90
16154;DHT22;8182;55.648;13.208;2023-09-18T06:32:08;18.30;99.90
16154;DHT22;8182;55.648;13.208;2023-09-18T06:34:49;18.40;99.90
16154;DHT22;8182;55.648;13.208;2023-09-18T06:37:17;18.40;99.90
16154;DHT22;8182;55.648;13.208;2023-09-18T06:39:44;18.50;99.90
16154;DHT22;8182;55.648;13.208;2023-09-18T06:42:11;18.50;99.90
16154;DHT22;8182;55.648;13.208;2023-09-18T06:44:42;18.60;99.90
16154;DHT22;8182;55.648;13.208;2023-09-18T06:47:09;18.60;99.90
16154;DHT22;8182;55.648;13.208;2023-09-18T06:49:37;18.70;99.90
16154;DHT22;8182;55.648;13.208;2023-09-18T06:52:04;18.70;99.90
16154;DHT22;8182;55.648;13.208;2023-09-18T06:54:31;18.70;99.90
16154;DHT22;8182;55.648;13.208;2023-09-18T06:56:58;18.80;99.90
16154;DHT22;8182;55.648;13.208;2023-09-18T06:59:25;18.70;99.90
16154;DHT22;8182;55.648;13.208;2023-09-18T07:01:52;18.80;99.90
16154;DHT22;8182;55.648;13.208;2023-09-18T07:04:19;18.80;99.90
16154;DHT22;8182;55.648;13.208;2023-09-18T07:06:54;18.70;99.90
16154;DHT22;8182;55.648;13.208;2023-09-18T07:09:22;18.80;99.90
16154;DHT22;8182;55.648;13.208;2023-09-18T07:11:50;18.80;99.90
16154;DHT22;8182;55.648;13.208;2023-09-18T07:14:20;18.90;99.90
16154;DHT22;8182;55.648;13.208;2023-09-18T07:16:50;19.00;99.90
16154;DHT22;8182;55.648;13.208;2023-09-18T07:19:17;19.00;99.90
16154;DHT22;8182;55.648;13.208;2023-09-18T07:21:44;19.00;99.90
16154;DHT22;8182;55.648;13.208;2023-09-18T07:24:13;19.00;99.90
16154;DHT22;8182;55.648;13.208;2023-09-18T07:26:44;19.10;99.90
16154;DHT22;8182;55.648;13.208;2023-09-18T07:29:12;19.20;99.90
16154;DHT22;8182;55.648;13.208;2023-09-18T07:31:42;19.20;99.90
16154;DHT22;8182;55.648;13.208;2023-09-18T07:34:10;19.30;99.90
16154;DHT22;8182;55.648;13.208;2023-09-18T07:36:37;19.40;99.90
16154;DHT22;8182;55.648;13.208;2023-09-18T07:39:05;19.60;99.90
16154;DHT22;8182;55.648;13.208;2023-09-18T07:41:33;19.70;99.90
16154;DHT22;8182;55.648;13.208;2023-09-18T07:44:00;19.60;99.90
16154;DHT22;8182;55.648;13.208;2023-09-18T07:46:27;19.70;99.90
16154;DHT22;8182;55.648;13.208;2023-09-18T07:48:54;19.70;99.90
16154;DHT22;8182;55.648;13.208;2023-09-18T07:51:21;19.70;99.90
16154;DHT22;8182;55.648;13.208;2023-09-18T07:53:49;19.90;99.90
16154;DHT22;8182;55.648;13.208;2023-09-18T07:56:16;19.70;99.90
16154;DHT22;8182;55.648;13.208;2023-09-18T07:58:45;19.90;99.90
16154;DHT22;8182;55.648;13.208;2023-09-18T08:01:12;20.00;99.90
16154;DHT22;8182;55.648;13.208;2023-09-18T08:03:42;20.00;99.90
16154;DHT22;8182;55.648;13.208;2023-09-18T08:06:09;20.10;99.90
16154;DHT22;8182;55.648;13.208;2023-09-18T08:08:37;20.00;99.90
16154;DHT22;8182;55.648;13.208;2023-09-18T08:11:09;20.20;99.90
16154;DHT22;8182;55.648;13.208;2023-09-18T08:13:36;20.30;99.90
16154;DHT22;8182;55.648;13.208;2023-09-18T08:16:07;20.20;99.90
16154;DHT22;8182;55.648;13.208;2023-09-18T08:18:34;20.30;99.90
16154;DHT22;8182;55.648;13.208;2023-09-18T08:21:01;20.20;99.90
16154;DHT22;8182;55.648;13.208;2023-09-18T08:23:28;20.50;99.90
16154;DHT22;8182;55.648;13.208;2023-09-18T08:25:58;20.60;99.90
16154;DHT22;8182;55.648;13.208;2023-09-18T08:28:25;20.50;99.90
16154;DHT22;8182;55.648;13.208;2023-09-18T08:30:52;20.70;99.90
16154;DHT22;8182;55.648;13.208;2023-09-18T08:33:20;20.80;99.90
16154;DHT22;8182;55.648;13.208;2023-09-18T08:35:48;20.90;99.90
16154;DHT22;8182;55.648;13.208;2023-09-18T08:38:15;21.10;99.90
16154;DHT22;8182;55.648;13.208;2023-09-18T08:40:43;21.20;99.90
16154;DHT22;8182;55.648;13.208;2023-09-18T08:43:12;21.50;99.90
16154;DHT22;8182;55.648;13.208;2023-09-18T08:45:49;21.60;99.90
16154;DHT22;8182;55.648;13.208;2023-09-18T08:48:17;21.40;99.90
16154;DHT22;8182;55.648;13.208;2023-09-18T08:50:47;21.50;99.90
16154;DHT22;8182;55.648;13.208;2023-09-18T08:53:14;21.60;99.90
16154;DHT22;8182;55.648;13.208;2023-09-18T08:55:41;21.70;99.90
16154;DHT22;8182;55.648;13.208;2023-09-18T08:58:08;21.40;99.90
16154;DHT22;8182;55.648;13.208;2023-09-18T09:00:36;21.60;99.90
16154;DHT22;8182;55.648;13.208;2023-09-18T09:03:04;21.50;99.90
16154;DHT22;8182;55.648;13.208;2023-09-18T09:05:31;21.60;99.90
16154;DHT22;8182;55.648;13.208;2023-09-18T09:08:00;21.50;99.90
16154;DHT22;8182;55.648;13.208;2023-09-18T09:10:27;21.90;99.90
16154;DHT22;8182;55.648;13.208;2023-09-18T09:12:56;22.20;99.90
16154;DHT22;8182;55.648;13.208;2023-09-18T09:15:28;22.60;99.90
16154;DHT22;8182;55.648;13.208;2023-09-18T09:18:04;22.10;99.90
16154;DHT22;8182;55.648;13.208;2023-09-18T09:20:31;22.20;99.90
16154;DHT22;8182;55.648;13.208;2023-09-18T09:23:04;21.80;99.90
16154;DHT22;8182;55.648;13.208;2023-09-18T09:25:32;21.80;99.90
16154;DHT22;8182;55.648;13.208;2023-09-18T09:28:01;22.10;99.90
16154;DHT22;8182;55.648;13.208;2023-09-18T09:30:29;22.50;99.90
16154;DHT22;8182;55.648;13.208;2023-09-18T09:32:57;22.70;99.90
16154;DHT22;8182;55.648;13.208;2023-09-18T09:35:26;22.70;99.90
16154;DHT22;8182;55.648;13.208;2023-09-18T09:38:06;22.90;99.90
16154;DHT22;8182;55.648;13.208;2023-09-18T09:40:34;22.70;99.90
16154;DHT22;8182;55.648;13.208;2023-09-18T09:43:03;23.20;99.90
16154;DHT22;8182;55.648;13.208;2023-09-18T09:45:31;23.10;99.90
16154;DHT22;8182;55.648;13.208;2023-09-18T09:48:04;23.50;99.90
16154;DHT22;8182;55.648;13.208;2023-09-18T09:50:32;23.80;99.90
16154;DHT22;8182;55.648;13.208;2023-09-18T09:52:59;23.50;99.90
16154;DHT22;8182;55.648;13.208;2023-09-18T09:55:29;23.70;99.90
16154;DHT22;8182;55.648;13.208;2023-09-18T09:57:58;23.80;99.90
16154;DHT22;8182;55.648;13.208;2023-09-18T10:00:29;24.20;99.90
16154;DHT22;8182;55.648;13.208;2023-09-18T10:03:03;23.70;99.90
16154;DHT22;8182;55.648;13.208;2023-09-18T10:05:32;23.50;99.90
16154;DHT22;8182;55.648;13.208;2023-09-18T10:08:03;23.90;99.90
16154;DHT22;8182;55.648;13.208;2023-09-18T10:10:35;23.90;99.90
16154;DHT22;8182;55.648;13.208;2023-09-18T10:13:14;24.00;99.90
16154;DHT22;8182;55.648;13.208;2023-09-18T10:15:42;23.90;99.90
16154;DHT22;8182;55.648;13.208;2023-09-18T10:18:17;24.40;99.90
16154;DHT22;8182;55.648;13.208;2023-09-18T10:20:51;24.50;99.90
16154;DHT22;8182;55.648;13.208;2023-09-18T10:23:31;24.70;99.90
16154;DHT22;8182;55.648;13.208;2023-09-18T10:26:03;24.40;99.90
16154;DHT22;8182;55.648;13.208;2023-09-18T10:28:31;24.80;99.90
16154;DHT22;8182;55.648;13.208;2023-09-18T10:31:00;24.70;99.90
16154;DHT22;8182;55.648;13.208;2023-09-18T10:33:30;24.40;99.90
16154;DHT22;8182;55.648;13.208;2023-09-18T10:35:58;24.50;99.90
16154;DHT22;8182;55.648;13.208;2023-09-18T10:38:27;24.80;99.90
16154;DHT22;8182;55.648;13.208;2023-09-18T10:40:56;24.90;99.90
16154;DHT22;8182;55.648;13.208;2023-09-18T10:43:25;24.40;99.90
16154;DHT22;8182;55.648;13.208;2023-09-18T10:45:53;24.30;99.90
16154;DHT22;8182;55.648;13.208;2023-09-18T10:48:20;24.70;99.90
16154;DHT22;8182;55.648;13.208;2023-09-18T10:50:48;25.00;99.90
16154;DHT22;8182;55.648;13.208;2023-09-18T10:53:15;25.40;99.90
16154;DHT22;8182;55.648;13.208;2023-09-18T10:55:44;25.10;99.90
16154;DHT22;8182;55.648;13.208;2023-09-18T10:58:11;24.80;99.90
16154;DHT22;8182;55.648;13.208;2023-09-18T11:00:41;24.90;99.90
16154;DHT22;8182;55.648;13.208;2023-09-18T11:03:14;24.90;99.90
16154;DHT22;8182;55.648;13.208;2023-09-18T11:05:44;24.60;99.90
16154;DHT22;8182;55.648;13.208;2023-09-18T11:08:25;24.70;99.90
16154;DHT22;8182;55.648;13.208;2023-09-18T11:11:00;24.80;99.90
16154;DHT22;8182;55.648;13.208;2023-09-18T11:13:33;24.70;99.90
16154;DHT22;8182;55.648;13.208;2023-09-18T11:16:13;24.50;99.90
16154;DHT22;8182;55.648;13.208;2023-09-18T11:18:40;24.90;99.90
16154;DHT22;8182;55.648;13.208;2023-09-18T11:21:08;24.40;99.90
16154;DHT22;8182;55.648;13.208;2023-09-18T11:23:37;24.70;99.90
16154;DHT22;8182;55.648;13.208;2023-09-18T11:26:07;24.40;99.90
16154;DHT22;8182;55.648;13.208;2023-09-18T11:28:35;24.70;99.90
16154;DHT22;8182;55.648;13.208;2023-09-18T11:31:05;24.50;99.90
16154;DHT22;8182;55.648;13.208;2023-09-18T11:33:34;24.90;99.90
16154;DHT22;8182;55.648;13.208;2023-09-18T11:36:07;24.40;99.90
16154;DHT22;8182;55.648;13.208;2023-09-18T11:38:53;24.40;99.90
16154;DHT22;8182;55.648;13.208;2023-09-18T11:41:23;24.30;99.90
16154;DHT22;8182;55.648;13.208;2023-09-18T11:43:51;24.10;99.90
16154;DHT22;8182;55.648;13.208;2023-09-18T11:46:21;24.10;99.90
16154;DHT22;8182;55.648;13.208;2023-09-18T11:48:48;24.00;99.90
16154;DHT22;8182;55.648;13.208;2023-09-18T11:51:23;23.90;99.90
16154;DHT22;8182;55.648;13.208;2023-09-18T11:53:55;23.70;99.90
16154;DHT22;8182;55.648;13.208;2023-09-18T11:56:23;23.80;99.90
16154;DHT22;8182;55.648;13.208;2023-09-18T11:58:51;23.80;99.90
16154;DHT22;8182;55.648;13.208;2023-09-18T12:01:22;23.90;99.90
16154;DHT22;8182;55.648;13.208;2023-09-18T12:04:00;23.70;99.90
16154;DHT22;8182;55.648;13.208;2023-09-18T12:06:27;23.70;99.90
16154;DHT22;8182;55.648;13.208;2023-09-18T12:08:54;23.60;99.90
16154;DHT22;8182;55.648;13.208;2023-09-18T12:11:22;23.60;99.90
16154;DHT22;8182;55.648;13.208;2023-09-18T12:13:51;23.60;99.90
16154;DHT22;8182;55.648;13.208;2023-09-18T12:16:18;23.50;99.90
16154;DHT22;8182;55.648;13.208;2023-09-18T12:18:46;23.50;99.90
16154;DHT22;8182;55.648;13.208;2023-09-18T12:21:15;23.60;99.90
16154;DHT22;8182;55.648;13.208;2023-09-18T12:23:44;23.30;99.90
16154;DHT22;8182;55.648;13.208;2023-09-18T12:26:15;23.50;99.90
16154;DHT22;8182;55.648;13.208;2023-09-18T12:28:43;23.40;99.90
16154;DHT22;8182;55.648;13.208;2023-09-18T12:31:11;23.50;99.90
16154;DHT22;8182;55.648;13.208;2023-09-18T12:33:39;23.30;99.90
16154;DHT22;8182;55.648;13.208;2023-09-18T12:36:08;23.30;99.90
16154;DHT22;8182;55.648;13.208;2023-09-18T12:38:35;23.30;99.90
16154;DHT22;8182;55.648;13.208;2023-09-18T12:41:03;23.60;99.90
16154;DHT22;8182;55.648;13.208;2023-09-18T12:43:36;23.70;99.90
16154;DHT22;8182;55.648;13.208;2023-09-18T12:46:05;23.50;99.90
16154;DHT22;8182;55.648;13.208;2023-09-18T12:48:32;23.50;99.90
16154;DHT22;8182;55.648;13.208;2023-09-18T12:51:03;23.50;99.90
16154;DHT22;8182;55.648;13.208;2023-09-18T12:53:32;23.40;99.90
16154;DHT22;8182;55.648;13.208;2023-09-18T12:56:06;23.60;99.90
16154;DHT22;8182;55.648;13.208;2023-09-18T12:58:33;23.60;99.90
16154;DHT22;8182;55.648;13.208;2023-09-18T13:01:07;23.70;99.90
16154;DHT22;8182;55.648;13.208;2023-09-18T13:03:40;23.50;99.90
16154;DHT22;8182;55.648;13.208;2023-09-18T13:06:10;23.60;99.90
16154;DHT22;8182;55.648;13.208;2023-09-18T13:08:38;23.40;99.90
16154;DHT22;8182;55.648;13.208;2023-09-18T13:11:05;23.30;99.90
16154;DHT22;8182;55.648;13.208;2023-09-18T13:13:33;23.50;99.90
16154;DHT22;8182;55.648;13.208;2023-09-18T13:16:00;23.50;99.90
16154;DHT22;8182;55.648;13.208;2023-09-18T13:18:31;23.60;99.90
16154;DHT22;8182;55.648;13.208;2023-09-18T13:20:58;23.80;99.90
16154;DHT22;8182;55.648;13.208;2023-09-18T13:23:28;23.80;99.90
16154;DHT22;8182;55.648;13.208;2023-09-18T13:26:00;23.70;99.90
16154;DHT22;8182;55.648;13.208;2023-09-18T13:28:30;23.50;99.90
16154;DHT22;8182;55.648;13.208;2023-09-18T13:30:59;23.40;99.90
16154;DHT22;8182;55.648;13.208;2023-09-18T13:33:26;23.40;99.90
16154;DHT22;8182;55.648;13.208;2023-09-18T13:35:55;23.40;99.90
16154;DHT22;8182;55.648;13.208;2023-09-18T13:38:22;23.30;99.90
16154;DHT22;8182;55.648;13.208;2023-09-18T13:40:49;23.50;99.90
16154;DHT22;8182;55.648;13.208;2023-09-18T13:43:18;23.50;99.90
16154;DHT22;8182;55.648;13.208;2023-09-18T13:45:47;23.50;99.90
16154;DHT22;8182;55.648;13.208;2023-09-18T13:48:17;23.60;99.90
16154;DHT22;8182;55.648;13.208;2023-09-18T13:50:44;23.60;99.90
16154;DHT22;8182;55.648;13.208;2023-09-18T13:53:12;23.50;99.90
16154;DHT22;8182;55.648;13.208;2023-09-18T13:55:39;23.60;99.90
16154;DHT22;8182;55.648;13.208;2023-09-18T13:58:06;23.60;99.90
16154;DHT22;8182;55.648;13.208;2023-09-18T14:00:35;23.70;99.90
16154;DHT22;8182;55.648;13.208;2023-09-18T14:03:02;23.70;99.90
16154;DHT22;8182;55.648;13.208;2023-09-18T14:05:30;23.50;99.90
16154;DHT22;8182;55.648;13.208;2023-09-18T14:08:05;23.50;99.90
16154;DHT22;8182;55.648;13.208;2023-09-18T14:10:32;23.50;99.90
16154;DHT22;8182;55.648;13.208;2023-09-18T14:12:59;23.50;99.90
16154;DHT22;8182;55.648;13.208;2023-09-18T14:15:26;23.50;99.90
16154;DHT22;8182;55.648;13.208;2023-09-18T14:17:56;23.50;99.90
16154;DHT22;8182;55.648;13.208;2023-09-18T14:20:23;23.50;99.90
16154;DHT22;8182;55.648;13.208;2023-09-18T14:22:49;23.40;99.90
16154;DHT22;8182;55.648;13.208;2023-09-18T14:25:17;23.40;99.90
16154;DHT22;8182;55.648;13.208;2023-09-18T14:27:46;23.30;99.90
16154;DHT22;8182;55.648;13.208;2023-09-18T14:30:14;23.20;99.90
16154;DHT22;8182;55.648;13.208;2023-09-18T14:32:40;23.20;99.90
16154;DHT22;8182;55.648;13.208;2023-09-18T14:35:10;23.10;99.90
16154;DHT22;8182;55.648;13.208;2023-09-18T14:37:37;23.10;99.90
16154;DHT22;8182;55.648;13.208;2023-09-18T14:40:05;23.00;99.90
16154;DHT22;8182;55.648;13.208;2023-09-18T14:42:36;22.90;99.90
16154;DHT22;8182;55.648;13.208;2023-09-18T14:45:04;22.90;99.90
16154;DHT22;8182;55.648;13.208;2023-09-18T14:47:31;22.90;99.90
16154;DHT22;8182;55.648;13.208;2023-09-18T14:49:58;22.80;99.90
16154;DHT22;8182;55.648;13.208;2023-09-18T14:52:28;22.70;99.90
16154;DHT22;8182;55.648;13.208;2023-09-18T14:54:55;22.60;99.90
16154;DHT22;8182;55.648;13.208;2023-09-18T14:57:22;22.70;99.90
16154;DHT22;8182;55.648;13.208;2023-09-18T14:59:49;22.50;99.90
16154;DHT22;8182;55.648;13.208;2023-09-18T15:02:16;22.40;99.90
16154;DHT22;8182;55.648;13.208;2023-09-18T15:04:43;22.40;99.90
16154;DHT22;8182;55.648;13.208;2023-09-18T15:07:10;22.30;99.90
16154;DHT22;8182;55.648;13.208;2023-09-18T15:09:39;22.20;99.90
16154;DHT22;8182;55.648;13.208;2023-09-18T15:12:07;22.30;99.90
16154;DHT22;8182;55.648;13.208;2023-09-18T15:14:37;22.30;99.90
16154;DHT22;8182;55.648;13.208;2023-09-18T15:17:05;22.20;99.90
16154;DHT22;8182;55.648;13.208;2023-09-18T15:19:33;22.10;99.90
16154;DHT22;8182;55.648;13.208;2023-09-18T15:22:00;22.00;99.90
16154;DHT22;8182;55.648;13.208;2023-09-18T15:24:28;22.10;99.90
16154;DHT22;8182;55.648;13.208;2023-09-18T15:26:56;22.00;99.90
16154;DHT22;8182;55.648;13.208;2023-09-18T15:29:23;21.80;99.90
16154;DHT22;8182;55.648;13.208;2023-09-18T15:31:53;21.70;99.90
16154;DHT22;8182;55.648;13.208;2023-09-18T15:34:20;21.60;99.90
16154;DHT22;8182;55.648;13.208;2023-09-18T15:36:47;21.50;99.90
16154;DHT22;8182;55.648;13.208;2023-09-18T15:39:15;21.30;99.90